sensor_id;sensor_type;location;lat;lon;timestamp;P1;durP1;ratioP1;P2;durP2;ratioP2
151;SDS011;68;48.792;9.164;2023-05-07T00:02:06;18.20;;;8.00;;
151;SDS011;68;48.792;9.164;2023-05-07T00:04:33;21.90;;;7.30;;
151;SDS011;68;48.792;9.164;2023-05-07T00:07:02;17.47;;;7.50;;
151;SDS011;68;48.792;9.164;2023-05-07T00:09:29;18.43;;;8.23;;
151;SDS011;68;48.792;9.164;2023-05-07T00:11:56;17.87;;;8.77;;
151;SDS011;68;48.792;9.164;2023-05-07T00:14:22;19.77;;;8.37;;
151;SDS011;68;48.792;9.164;2023-05-07T00:16:51;17.60;;;7.90;;
151;SDS011;68;48.792;9.164;2023-05-07T00:19:17;19.90;;;8.70;;
151;SDS011;68;48.792;9.164;2023-05-07T00:21:44;19.00;;;8.60;;
151;SDS011;68;48.792;9.164;2023-05-07T00:24:11;18.30;;;7.90;;
151;SDS011;68;48.792;9.164;2023-05-07T00:26:38;20.87;;;8.70;;
151;SDS011;68;48.792;9.164;2023-05-07T00:29:04;23.83;;;9.00;;
151;SDS011;68;48.792;9.164;2023-05-07T00:31:31;17.60;;;8.53;;
151;SDS011;68;48.792;9.164;2023-05-07T00:33:59;20.10;;;9.30;;
151;SDS011;68;48.792;9.164;2023-05-07T00:36:26;19.23;;;9.50;;
151;SDS011;68;48.792;9.164;2023-05-07T00:38:54;18.90;;;8.80;;
151;SDS011;68;48.792;9.164;2023-05-07T00:41:22;22.13;;;9.23;;
151;SDS011;68;48.792;9.164;2023-05-07T00:43:49;22.57;;;8.13;;
151;SDS011;68;48.792;9.164;2023-05-07T00:46:17;22.87;;;8.30;;
151;SDS011;68;48.792;9.164;2023-05-07T00:48:44;18.03;;;8.80;;
151;SDS011;68;48.792;9.164;2023-05-07T00:51:13;30.77;;;9.43;;
151;SDS011;68;48.792;9.164;2023-05-07T00:53:40;20.03;;;8.73;;
151;SDS011;68;48.792;9.164;2023-05-07T00:56:07;24.57;;;9.10;;
151;SDS011;68;48.792;9.164;2023-05-07T00:58:34;21.40;;;8.83;;
151;SDS011;68;48.792;9.164;2023-05-07T01:01:01;22.23;;;9.57;;
151;SDS011;68;48.792;9.164;2023-05-07T01:03:28;20.45;;;9.90;;
151;SDS011;68;48.792;9.164;2023-05-07T01:05:55;19.23;;;9.67;;
151;SDS011;68;48.792;9.164;2023-05-07T01:08:26;20.70;;;9.83;;
151;SDS011;68;48.792;9.164;2023-05-07T01:10:55;20.13;;;9.27;;
151;SDS011;68;48.792;9.164;2023-05-07T01:13:23;21.13;;;10.17;;
151;SDS011;68;48.792;9.164;2023-05-07T01:15:50;22.27;;;10.80;;
151;SDS011;68;48.792;9.164;2023-05-07T01:18:17;21.00;;;9.40;;
151;SDS011;68;48.792;9.164;2023-05-07T01:20:44;19.00;;;9.40;;
151;SDS011;68;48.792;9.164;2023-05-07T01:23:13;24.00;;;10.53;;
151;SDS011;68;48.792;9.164;2023-05-07T01:25:40;22.47;;;10.37;;
151;SDS011;68;48.792;9.164;2023-05-07T01:28:07;19.50;;;9.13;;
151;SDS011;68;48.792;9.164;2023-05-07T01:30:34;19.67;;;10.30;;
151;SDS011;68;48.792;9.164;2023-05-07T01:33:03;19.97;;;9.90;;
151;SDS011;68;48.792;9.164;2023-05-07T01:35:34;20.90;;;9.90;;
151;SDS011;68;48.792;9.164;2023-05-07T01:38:04;19.85;;;10.20;;
151;SDS011;68;48.792;9.164;2023-05-07T01:40:33;20.70;;;10.90;;
151;SDS011;68;48.792;9.164;2023-05-07T01:43:00;20.50;;;10.13;;
151;SDS011;68;48.792;9.164;2023-05-07T01:45:28;17.97;;;9.40;;
151;SDS011;68;48.792;9.164;2023-05-07T01:47:57;20.07;;;10.07;;
151;SDS011;68;48.792;9.164;2023-05-07T01:50:24;25.90;;;11.03;;
151;SDS011;68;48.792;9.164;2023-05-07T01:52:52;23.20;;;10.47;;
151;SDS011;68;48.792;9.164;2023-05-07T01:55:19;30.27;;;10.30;;
151;SDS011;68;48.792;9.164;2023-05-07T01:57:47;22.00;;;10.32;;
151;SDS011;68;48.792;9.164;2023-05-07T02:00:14;22.75;;;11.15;;
151;SDS011;68;48.792;9.164;2023-05-07T02:02:41;22.20;;;10.57;;
151;SDS011;68;48.792;9.164;2023-05-07T02:05:08;20.33;;;10.27;;
151;SDS011;68;48.792;9.164;2023-05-07T02:07:35;30.53;;;12.07;;
151;SDS011;68;48.792;9.164;2023-05-07T02:10:02;19.50;;;10.50;;
151;SDS011;68;48.792;9.164;2023-05-07T02:12:29;21.40;;;10.40;;
151;SDS011;68;48.792;9.164;2023-05-07T02:14:57;20.00;;;10.90;;
151;SDS011;68;48.792;9.164;2023-05-07T02:17:23;24.03;;;10.40;;
151;SDS011;68;48.792;9.164;2023-05-07T02:19:50;24.20;;;10.90;;
151;SDS011;68;48.792;9.164;2023-05-07T02:22:17;24.33;;;11.20;;
151;SDS011;68;48.792;9.164;2023-05-07T02:24:44;22.93;;;11.00;;
151;SDS011;68;48.792;9.164;2023-05-07T02:27:11;28.60;;;10.85;;
151;SDS011;68;48.792;9.164;2023-05-07T02:29:37;21.83;;;10.60;;
151;SDS011;68;48.792;9.164;2023-05-07T02:32:06;19.73;;;10.07;;
151;SDS011;68;48.792;9.164;2023-05-07T02:34:32;22.73;;;10.17;;
151;SDS011;68;48.792;9.164;2023-05-07T02:36:59;20.43;;;10.87;;
151;SDS011;68;48.792;9.164;2023-05-07T02:39:26;23.47;;;10.60;;
151;SDS011;68;48.792;9.164;2023-05-07T02:41:53;21.83;;;11.10;;
151;SDS011;68;48.792;9.164;2023-05-07T02:44:20;20.48;;;10.30;;
151;SDS011;68;48.792;9.164;2023-05-07T02:46:46;21.27;;;11.60;;
151;SDS011;68;48.792;9.164;2023-05-07T02:49:14;21.67;;;10.87;;
151;SDS011;68;48.792;9.164;2023-05-07T02:51:41;21.07;;;10.80;;
151;SDS011;68;48.792;9.164;2023-05-07T02:54:08;20.30;;;10.17;;
151;SDS011;68;48.792;9.164;2023-05-07T02:56:34;21.65;;;11.32;;
151;SDS011;68;48.792;9.164;2023-05-07T02:59:01;22.58;;;11.38;;
151;SDS011;68;48.792;9.164;2023-05-07T03:01:28;27.20;;;11.38;;
151;SDS011;68;48.792;9.164;2023-05-07T03:03:55;23.38;;;9.85;;
151;SDS011;68;48.792;9.164;2023-05-07T03:06:23;20.85;;;10.35;;
151;SDS011;68;48.792;9.164;2023-05-07T03:08:51;25.40;;;11.15;;
151;SDS011;68;48.792;9.164;2023-05-07T03:11:17;21.95;;;10.02;;
151;SDS011;68;48.792;9.164;2023-05-07T03:13:44;21.75;;;10.38;;
151;SDS011;68;48.792;9.164;2023-05-07T03:16:11;21.20;;;10.30;;
151;SDS011;68;48.792;9.164;2023-05-07T03:18:38;22.75;;;10.55;;
151;SDS011;68;48.792;9.164;2023-05-07T03:21:05;23.00;;;11.23;;
151;SDS011;68;48.792;9.164;2023-05-07T03:23:33;21.50;;;10.95;;
151;SDS011;68;48.792;9.164;2023-05-07T03:26:00;23.55;;;10.55;;
151;SDS011;68;48.792;9.164;2023-05-07T03:28:26;23.17;;;10.98;;
151;SDS011;68;48.792;9.164;2023-05-07T03:30:53;22.20;;;11.10;;
151;SDS011;68;48.792;9.164;2023-05-07T03:33:20;21.48;;;11.38;;
151;SDS011;68;48.792;9.164;2023-05-07T03:35:47;22.27;;;10.90;;
151;SDS011;68;48.792;9.164;2023-05-07T03:38:13;19.52;;;10.20;;
151;SDS011;68;48.792;9.164;2023-05-07T03:40:41;20.13;;;10.07;;
151;SDS011;68;48.792;9.164;2023-05-07T03:43:08;19.80;;;9.50;;
151;SDS011;68;48.792;9.164;2023-05-07T03:45:35;20.25;;;10.70;;
151;SDS011;68;48.792;9.164;2023-05-07T03:48:02;22.40;;;10.20;;
151;SDS011;68;48.792;9.164;2023-05-07T03:50:29;20.90;;;11.87;;
151;SDS011;68;48.792;9.164;2023-05-07T03:52:56;21.23;;;10.38;;
151;SDS011;68;48.792;9.164;2023-05-07T03:55:22;19.95;;;10.52;;
151;SDS011;68;48.792;9.164;2023-05-07T03:57:51;21.33;;;10.75;;
151;SDS011;68;48.792;9.164;2023-05-07T04:00:18;19.60;;;9.25;;
151;SDS011;68;48.792;9.164;2023-05-07T04:02:45;20.65;;;10.82;;
151;SDS011;68;48.792;9.164;2023-05-07T04:05:11;20.65;;;10.60;;
151;SDS011;68;48.792;9.164;2023-05-07T04:07:40;21.55;;;11.10;;
151;SDS011;68;48.792;9.164;2023-05-07T04:10:07;20.25;;;10.60;;
151;SDS011;68;48.792;9.164;2023-05-07T04:12:35;20.95;;;9.75;;
151;SDS011;68;48.792;9.164;2023-05-07T04:15:03;18.85;;;10.80;;
151;SDS011;68;48.792;9.164;2023-05-07T04:17:30;22.50;;;10.45;;
151;SDS011;68;48.792;9.164;2023-05-07T04:19:57;20.90;;;9.85;;
151;SDS011;68;48.792;9.164;2023-05-07T04:22:24;20.73;;;11.68;;
151;SDS011;68;48.792;9.164;2023-05-07T04:24:50;22.83;;;11.40;;
151;SDS011;68;48.792;9.164;2023-05-07T04:27:17;20.58;;;10.90;;
151;SDS011;68;48.792;9.164;2023-05-07T04:29:44;22.77;;;11.00;;
151;SDS011;68;48.792;9.164;2023-05-07T04:32:13;20.17;;;10.80;;
151;SDS011;68;48.792;9.164;2023-05-07T04:34:40;21.83;;;10.90;;
151;SDS011;68;48.792;9.164;2023-05-07T04:37:07;20.67;;;11.35;;
151;SDS011;68;48.792;9.164;2023-05-07T04:39:34;19.45;;;10.60;;
151;SDS011;68;48.792;9.164;2023-05-07T04:42:01;24.48;;;11.80;;
151;SDS011;68;48.792;9.164;2023-05-07T04:44:28;19.75;;;10.93;;
151;SDS011;68;48.792;9.164;2023-05-07T04:46:56;21.85;;;11.00;;
151;SDS011;68;48.792;9.164;2023-05-07T04:49:24;22.80;;;11.05;;
151;SDS011;68;48.792;9.164;2023-05-07T04:51:50;20.20;;;11.20;;
151;SDS011;68;48.792;9.164;2023-05-07T04:54:17;22.67;;;10.98;;
151;SDS011;68;48.792;9.164;2023-05-07T04:56:44;22.35;;;10.48;;
151;SDS011;68;48.792;9.164;2023-05-07T04:59:11;19.58;;;9.98;;
151;SDS011;68;48.792;9.164;2023-05-07T05:01:37;21.73;;;10.82;;
151;SDS011;68;48.792;9.164;2023-05-07T05:04:05;20.23;;;10.68;;
151;SDS011;68;48.792;9.164;2023-05-07T05:06:33;19.55;;;10.35;;
151;SDS011;68;48.792;9.164;2023-05-07T05:09:00;19.60;;;10.10;;
151;SDS011;68;48.792;9.164;2023-05-07T05:11:26;22.13;;;10.15;;
151;SDS011;68;48.792;9.164;2023-05-07T05:13:53;20.58;;;10.13;;
151;SDS011;68;48.792;9.164;2023-05-07T05:16:20;24.40;;;10.13;;
151;SDS011;68;48.792;9.164;2023-05-07T05:18:47;25.70;;;11.57;;
151;SDS011;68;48.792;9.164;2023-05-07T05:21:13;24.90;;;10.60;;
151;SDS011;68;48.792;9.164;2023-05-07T05:23:41;21.10;;;10.70;;
151;SDS011;68;48.792;9.164;2023-05-07T05:26:08;24.60;;;10.60;;
151;SDS011;68;48.792;9.164;2023-05-07T05:28:35;24.15;;;10.82;;
151;SDS011;68;48.792;9.164;2023-05-07T05:31:02;24.45;;;11.75;;
151;SDS011;68;48.792;9.164;2023-05-07T05:33:28;23.65;;;12.57;;
151;SDS011;68;48.792;9.164;2023-05-07T05:35:55;20.80;;;10.90;;
151;SDS011;68;48.792;9.164;2023-05-07T05:38:22;21.40;;;11.20;;
151;SDS011;68;48.792;9.164;2023-05-07T05:40:50;20.70;;;10.63;;
151;SDS011;68;48.792;9.164;2023-05-07T05:43:17;19.98;;;10.75;;
151;SDS011;68;48.792;9.164;2023-05-07T05:45:43;18.85;;;11.32;;
151;SDS011;68;48.792;9.164;2023-05-07T05:48:10;21.30;;;10.40;;
151;SDS011;68;48.792;9.164;2023-05-07T05:50:37;19.70;;;10.50;;
151;SDS011;68;48.792;9.164;2023-05-07T05:53:04;21.45;;;11.55;;
151;SDS011;68;48.792;9.164;2023-05-07T05:55:30;20.83;;;10.87;;
151;SDS011;68;48.792;9.164;2023-05-07T05:57:59;20.52;;;10.25;;
151;SDS011;68;48.792;9.164;2023-05-07T06:00:26;21.30;;;11.40;;
151;SDS011;68;48.792;9.164;2023-05-07T06:02:54;21.17;;;10.20;;
151;SDS011;68;48.792;9.164;2023-05-07T06:05:21;21.63;;;8.67;;
151;SDS011;68;48.792;9.164;2023-05-07T06:07:47;21.63;;;11.60;;
151;SDS011;68;48.792;9.164;2023-05-07T06:10:14;19.67;;;9.83;;
151;SDS011;68;48.792;9.164;2023-05-07T06:12:41;19.20;;;10.30;;
151;SDS011;68;48.792;9.164;2023-05-07T06:15:09;19.90;;;11.17;;
151;SDS011;68;48.792;9.164;2023-05-07T06:17:36;20.23;;;10.77;;
151;SDS011;68;48.792;9.164;2023-05-07T06:20:03;21.53;;;10.60;;
151;SDS011;68;48.792;9.164;2023-05-07T06:22:31;19.07;;;9.93;;
151;SDS011;68;48.792;9.164;2023-05-07T06:24:58;18.80;;;9.30;;
151;SDS011;68;48.792;9.164;2023-05-07T06:27:24;20.60;;;9.60;;
151;SDS011;68;48.792;9.164;2023-05-07T06:29:53;17.77;;;9.53;;
151;SDS011;68;48.792;9.164;2023-05-07T06:32:21;18.83;;;9.20;;
151;SDS011;68;48.792;9.164;2023-05-07T06:34:47;20.90;;;9.97;;
151;SDS011;68;48.792;9.164;2023-05-07T06:37:14;22.20;;;10.40;;
151;SDS011;68;48.792;9.164;2023-05-07T06:39:41;19.53;;;10.23;;
151;SDS011;68;48.792;9.164;2023-05-07T06:42:08;21.27;;;10.73;;
151;SDS011;68;48.792;9.164;2023-05-07T06:44:34;19.60;;;9.80;;
151;SDS011;68;48.792;9.164;2023-05-07T06:47:01;21.50;;;9.60;;
151;SDS011;68;48.792;9.164;2023-05-07T06:49:29;22.63;;;9.70;;
151;SDS011;68;48.792;9.164;2023-05-07T06:51:56;20.93;;;9.40;;
151;SDS011;68;48.792;9.164;2023-05-07T06:54:23;22.03;;;9.90;;
151;SDS011;68;48.792;9.164;2023-05-07T06:56:50;22.70;;;10.70;;
151;SDS011;68;48.792;9.164;2023-05-07T06:59:16;20.23;;;9.60;;
151;SDS011;68;48.792;9.164;2023-05-07T07:01:44;21.20;;;9.70;;
151;SDS011;68;48.792;9.164;2023-05-07T07:04:11;19.43;;;9.43;;
151;SDS011;68;48.792;9.164;2023-05-07T07:06:39;20.93;;;9.93;;
151;SDS011;68;48.792;9.164;2023-05-07T07:09:05;20.60;;;9.80;;
151;SDS011;68;48.792;9.164;2023-05-07T07:11:32;22.57;;;9.50;;
151;SDS011;68;48.792;9.164;2023-05-07T07:13:59;18.90;;;9.00;;
151;SDS011;68;48.792;9.164;2023-05-07T07:16:26;21.40;;;9.30;;
151;SDS011;68;48.792;9.164;2023-05-07T07:18:53;21.23;;;8.80;;
151;SDS011;68;48.792;9.164;2023-05-07T07:21:19;19.43;;;8.67;;
151;SDS011;68;48.792;9.164;2023-05-07T07:23:47;17.50;;;8.40;;
151;SDS011;68;48.792;9.164;2023-05-07T07:26:14;22.50;;;8.43;;
151;SDS011;68;48.792;9.164;2023-05-07T07:28:44;20.20;;;7.70;;
151;SDS011;68;48.792;9.164;2023-05-07T07:31:11;18.30;;;8.13;;
151;SDS011;68;48.792;9.164;2023-05-07T07:33:39;16.90;;;7.60;;
151;SDS011;68;48.792;9.164;2023-05-07T07:36:06;16.40;;;7.13;;
151;SDS011;68;48.792;9.164;2023-05-07T07:38:33;20.27;;;8.43;;
151;SDS011;68;48.792;9.164;2023-05-07T07:41:02;19.37;;;8.90;;
151;SDS011;68;48.792;9.164;2023-05-07T07:43:28;26.00;;;10.83;;
151;SDS011;68;48.792;9.164;2023-05-07T07:45:55;25.63;;;9.50;;
151;SDS011;68;48.792;9.164;2023-05-07T07:48:22;20.20;;;9.70;;
151;SDS011;68;48.792;9.164;2023-05-07T07:50:49;19.30;;;8.77;;
151;SDS011;68;48.792;9.164;2023-05-07T07:53:16;20.03;;;9.87;;
151;SDS011;68;48.792;9.164;2023-05-07T07:55:43;20.40;;;9.17;;
151;SDS011;68;48.792;9.164;2023-05-07T07:58:11;21.20;;;10.50;;
151;SDS011;68;48.792;9.164;2023-05-07T08:00:38;19.37;;;9.73;;
151;SDS011;68;48.792;9.164;2023-05-07T08:03:05;20.07;;;9.00;;
151;SDS011;68;48.792;9.164;2023-05-07T08:05:34;19.10;;;8.20;;
151;SDS011;68;48.792;9.164;2023-05-07T08:08:01;18.20;;;7.80;;
151;SDS011;68;48.792;9.164;2023-05-07T08:10:28;28.03;;;7.63;;
151;SDS011;68;48.792;9.164;2023-05-07T08:12:58;19.50;;;8.43;;
151;SDS011;68;48.792;9.164;2023-05-07T08:15:27;17.30;;;7.83;;
151;SDS011;68;48.792;9.164;2023-05-07T08:17:53;19.23;;;7.73;;
151;SDS011;68;48.792;9.164;2023-05-07T08:20:22;17.07;;;7.60;;
151;SDS011;68;48.792;9.164;2023-05-07T08:22:49;16.27;;;7.03;;
151;SDS011;68;48.792;9.164;2023-05-07T08:25:17;15.40;;;6.60;;
151;SDS011;68;48.792;9.164;2023-05-07T08:27:43;16.57;;;6.80;;
151;SDS011;68;48.792;9.164;2023-05-07T08:30:11;18.90;;;7.53;;
151;SDS011;68;48.792;9.164;2023-05-07T08:32:40;20.13;;;7.50;;
151;SDS011;68;48.792;9.164;2023-05-07T08:35:07;17.77;;;6.83;;
151;SDS011;68;48.792;9.164;2023-05-07T08:37:34;19.37;;;7.10;;
151;SDS011;68;48.792;9.164;2023-05-07T08:40:01;15.00;;;6.37;;
151;SDS011;68;48.792;9.164;2023-05-07T08:42:28;18.43;;;6.73;;
151;SDS011;68;48.792;9.164;2023-05-07T08:44:57;18.50;;;6.67;;
151;SDS011;68;48.792;9.164;2023-05-07T08:47:28;16.63;;;6.60;;
151;SDS011;68;48.792;9.164;2023-05-07T08:50:01;15.87;;;6.30;;
151;SDS011;68;48.792;9.164;2023-05-07T08:52:28;16.30;;;7.30;;
151;SDS011;68;48.792;9.164;2023-05-07T08:54:55;15.67;;;6.53;;
151;SDS011;68;48.792;9.164;2023-05-07T08:57:22;20.00;;;5.60;;
151;SDS011;68;48.792;9.164;2023-05-07T08:59:49;22.60;;;6.10;;
151;SDS011;68;48.792;9.164;2023-05-07T09:02:16;17.03;;;6.03;;
151;SDS011;68;48.792;9.164;2023-05-07T09:04:43;16.07;;;5.67;;
151;SDS011;68;48.792;9.164;2023-05-07T09:07:11;15.90;;;5.37;;
151;SDS011;68;48.792;9.164;2023-05-07T09:09:38;15.17;;;5.50;;
151;SDS011;68;48.792;9.164;2023-05-07T09:12:05;16.30;;;5.30;;
151;SDS011;68;48.792;9.164;2023-05-07T09:14:32;17.07;;;5.83;;
151;SDS011;68;48.792;9.164;2023-05-07T09:16:59;18.27;;;5.70;;
151;SDS011;68;48.792;9.164;2023-05-07T09:19:26;19.50;;;6.10;;
151;SDS011;68;48.792;9.164;2023-05-07T09:21:59;16.63;;;5.87;;
151;SDS011;68;48.792;9.164;2023-05-07T09:24:28;17.60;;;5.00;;
151;SDS011;68;48.792;9.164;2023-05-07T09:26:59;14.90;;;5.27;;
151;SDS011;68;48.792;9.164;2023-05-07T09:29:27;16.00;;;5.10;;
151;SDS011;68;48.792;9.164;2023-05-07T09:31:55;15.93;;;5.50;;
151;SDS011;68;48.792;9.164;2023-05-07T09:34:21;14.40;;;4.97;;
151;SDS011;68;48.792;9.164;2023-05-07T09:36:48;14.00;;;5.10;;
151;SDS011;68;48.792;9.164;2023-05-07T09:39:15;13.83;;;5.10;;
151;SDS011;68;48.792;9.164;2023-05-07T09:41:44;13.27;;;4.53;;
151;SDS011;68;48.792;9.164;2023-05-07T09:44:11;13.57;;;4.50;;
151;SDS011;68;48.792;9.164;2023-05-07T09:46:41;13.10;;;4.57;;
151;SDS011;68;48.792;9.164;2023-05-07T09:49:10;14.43;;;4.77;;
151;SDS011;68;48.792;9.164;2023-05-07T09:51:43;14.80;;;4.80;;
151;SDS011;68;48.792;9.164;2023-05-07T09:54:14;16.90;;;5.00;;
151;SDS011;68;48.792;9.164;2023-05-07T09:56:41;13.70;;;4.30;;
151;SDS011;68;48.792;9.164;2023-05-07T09:59:11;13.80;;;4.37;;
151;SDS011;68;48.792;9.164;2023-05-07T10:01:40;13.37;;;4.37;;
151;SDS011;68;48.792;9.164;2023-05-07T10:04:08;17.10;;;4.57;;
151;SDS011;68;48.792;9.164;2023-05-07T10:06:35;15.70;;;5.10;;
151;SDS011;68;48.792;9.164;2023-05-07T10:09:03;14.43;;;4.77;;
151;SDS011;68;48.792;9.164;2023-05-07T10:11:31;17.57;;;4.20;;
151;SDS011;68;48.792;9.164;2023-05-07T10:13:59;13.83;;;4.40;;
151;SDS011;68;48.792;9.164;2023-05-07T10:16:28;15.47;;;4.30;;
151;SDS011;68;48.792;9.164;2023-05-07T10:18:58;15.40;;;4.53;;
151;SDS011;68;48.792;9.164;2023-05-07T10:21:25;13.70;;;4.10;;
151;SDS011;68;48.792;9.164;2023-05-07T10:23:57;15.40;;;4.67;;
151;SDS011;68;48.792;9.164;2023-05-07T10:26:27;14.40;;;4.30;;
151;SDS011;68;48.792;9.164;2023-05-07T10:28:58;13.40;;;4.50;;
151;SDS011;68;48.792;9.164;2023-05-07T10:31:34;13.63;;;4.67;;
151;SDS011;68;48.792;9.164;2023-05-07T10:34:26;14.10;;;4.70;;
151;SDS011;68;48.792;9.164;2023-05-07T10:36:58;15.93;;;4.50;;
151;SDS011;68;48.792;9.164;2023-05-07T10:39:26;13.73;;;4.83;;
151;SDS011;68;48.792;9.164;2023-05-07T10:41:53;14.00;;;4.30;;
151;SDS011;68;48.792;9.164;2023-05-07T10:44:26;14.73;;;4.73;;
151;SDS011;68;48.792;9.164;2023-05-07T10:47:08;13.33;;;4.10;;
151;SDS011;68;48.792;9.164;2023-05-07T10:49:36;14.60;;;4.63;;
151;SDS011;68;48.792;9.164;2023-05-07T10:52:25;12.50;;;4.40;;
151;SDS011;68;48.792;9.164;2023-05-07T10:57:46;13.97;;;5.00;;
151;SDS011;68;48.792;9.164;2023-05-07T11:03:10;13.50;;;4.30;;
151;SDS011;68;48.792;9.164;2023-05-07T11:05:37;13.13;;;4.40;;
151;SDS011;68;48.792;9.164;2023-05-07T11:08:05;13.40;;;4.30;;
151;SDS011;68;48.792;9.164;2023-05-07T11:10:49;17.00;;;4.57;;
151;SDS011;68;48.792;9.164;2023-05-07T11:13:17;13.60;;;4.50;;
151;SDS011;68;48.792;9.164;2023-05-07T11:15:45;13.93;;;4.13;;
151;SDS011;68;48.792;9.164;2023-05-07T11:18:13;14.43;;;4.10;;
151;SDS011;68;48.792;9.164;2023-05-07T11:20:45;24.03;;;4.17;;
151;SDS011;68;48.792;9.164;2023-05-07T11:26:24;16.13;;;4.00;;
151;SDS011;68;48.792;9.164;2023-05-07T11:28:52;13.23;;;4.30;;
151;SDS011;68;48.792;9.164;2023-05-07T11:31:20;14.27;;;4.57;;
151;SDS011;68;48.792;9.164;2023-05-07T11:33:49;12.47;;;3.90;;
151;SDS011;68;48.792;9.164;2023-05-07T11:36:16;13.93;;;3.90;;
151;SDS011;68;48.792;9.164;2023-05-07T11:38:44;14.53;;;4.20;;
151;SDS011;68;48.792;9.164;2023-05-07T11:41:12;13.77;;;4.83;;
151;SDS011;68;48.792;9.164;2023-05-07T11:43:53;16.37;;;4.60;;
151;SDS011;68;48.792;9.164;2023-05-07T11:46:21;13.73;;;5.20;;
151;SDS011;68;48.792;9.164;2023-05-07T11:48:48;14.20;;;4.90;;
151;SDS011;68;48.792;9.164;2023-05-07T11:51:18;17.23;;;4.83;;
151;SDS011;68;48.792;9.164;2023-05-07T11:53:45;16.57;;;4.77;;
151;SDS011;68;48.792;9.164;2023-05-07T11:56:14;13.73;;;5.00;;
151;SDS011;68;48.792;9.164;2023-05-07T11:58:43;14.40;;;5.07;;
151;SDS011;68;48.792;9.164;2023-05-07T12:01:10;13.70;;;5.20;;
151;SDS011;68;48.792;9.164;2023-05-07T12:03:40;18.73;;;5.97;;
151;SDS011;68;48.792;9.164;2023-05-07T12:06:08;15.10;;;6.10;;
151;SDS011;68;48.792;9.164;2023-05-07T12:08:37;15.37;;;6.00;;
151;SDS011;68;48.792;9.164;2023-05-07T12:11:06;15.47;;;6.10;;
151;SDS011;68;48.792;9.164;2023-05-07T12:13:36;16.17;;;6.60;;
151;SDS011;68;48.792;9.164;2023-05-07T12:16:03;17.90;;;6.60;;
151;SDS011;68;48.792;9.164;2023-05-07T12:18:32;21.43;;;7.20;;
151;SDS011;68;48.792;9.164;2023-05-07T12:21:00;45.77;;;9.93;;
151;SDS011;68;48.792;9.164;2023-05-07T12:23:27;25.43;;;9.03;;
151;SDS011;68;48.792;9.164;2023-05-07T12:25:55;23.20;;;8.73;;
151;SDS011;68;48.792;9.164;2023-05-07T12:28:21;23.67;;;8.57;;
151;SDS011;68;48.792;9.164;2023-05-07T12:30:50;40.03;;;9.10;;
151;SDS011;68;48.792;9.164;2023-05-07T12:33:17;22.17;;;8.67;;
151;SDS011;68;48.792;9.164;2023-05-07T12:35:47;31.47;;;9.30;;
151;SDS011;68;48.792;9.164;2023-05-07T12:38:14;24.30;;;9.40;;
151;SDS011;68;48.792;9.164;2023-05-07T12:40:43;20.43;;;8.67;;
151;SDS011;68;48.792;9.164;2023-05-07T12:43:15;26.77;;;10.47;;
151;SDS011;68;48.792;9.164;2023-05-07T12:45:43;26.07;;;8.97;;
151;SDS011;68;48.792;9.164;2023-05-07T12:48:11;22.50;;;9.40;;
151;SDS011;68;48.792;9.164;2023-05-07T12:50:38;24.63;;;10.00;;
151;SDS011;68;48.792;9.164;2023-05-07T12:53:05;21.87;;;9.70;;
151;SDS011;68;48.792;9.164;2023-05-07T12:55:39;27.43;;;9.80;;
151;SDS011;68;48.792;9.164;2023-05-07T12:58:07;21.50;;;7.50;;
151;SDS011;68;48.792;9.164;2023-05-07T13:00:35;21.87;;;8.30;;
151;SDS011;68;48.792;9.164;2023-05-07T13:03:02;22.40;;;7.50;;
151;SDS011;68;48.792;9.164;2023-05-07T13:05:30;22.23;;;7.97;;
151;SDS011;68;48.792;9.164;2023-05-07T13:07:57;23.93;;;7.33;;
151;SDS011;68;48.792;9.164;2023-05-07T13:10:25;17.20;;;6.30;;
151;SDS011;68;48.792;9.164;2023-05-07T13:12:52;22.30;;;6.17;;
151;SDS011;68;48.792;9.164;2023-05-07T13:15:19;16.83;;;5.30;;
151;SDS011;68;48.792;9.164;2023-05-07T13:17:47;14.97;;;5.47;;
151;SDS011;68;48.792;9.164;2023-05-07T13:20:13;21.17;;;8.80;;
151;SDS011;68;48.792;9.164;2023-05-07T13:22:41;21.20;;;8.00;;
151;SDS011;68;48.792;9.164;2023-05-07T13:25:08;21.83;;;7.77;;
151;SDS011;68;48.792;9.164;2023-05-07T13:27:35;20.83;;;7.60;;
151;SDS011;68;48.792;9.164;2023-05-07T13:30:02;19.13;;;8.03;;
151;SDS011;68;48.792;9.164;2023-05-07T13:32:30;24.87;;;7.00;;
151;SDS011;68;48.792;9.164;2023-05-07T13:34:57;23.07;;;7.80;;
151;SDS011;68;48.792;9.164;2023-05-07T13:37:24;17.13;;;7.80;;
151;SDS011;68;48.792;9.164;2023-05-07T13:39:52;15.70;;;6.67;;
151;SDS011;68;48.792;9.164;2023-05-07T13:42:20;20.83;;;7.57;;
151;SDS011;68;48.792;9.164;2023-05-07T13:44:46;14.47;;;6.40;;
151;SDS011;68;48.792;9.164;2023-05-07T13:47:13;14.10;;;5.87;;
151;SDS011;68;48.792;9.164;2023-05-07T13:49:40;17.53;;;6.90;;
151;SDS011;68;48.792;9.164;2023-05-07T13:52:07;14.30;;;6.43;;
151;SDS011;68;48.792;9.164;2023-05-07T13:54:33;17.80;;;6.67;;
151;SDS011;68;48.792;9.164;2023-05-07T13:57:02;14.17;;;5.70;;
151;SDS011;68;48.792;9.164;2023-05-07T13:59:29;15.00;;;5.63;;
151;SDS011;68;48.792;9.164;2023-05-07T14:01:55;13.40;;;5.27;;
151;SDS011;68;48.792;9.164;2023-05-07T14:04:22;14.40;;;5.70;;
151;SDS011;68;48.792;9.164;2023-05-07T14:06:49;13.27;;;6.67;;
151;SDS011;68;48.792;9.164;2023-05-07T14:09:15;16.43;;;6.97;;
151;SDS011;68;48.792;9.164;2023-05-07T14:11:42;15.60;;;7.60;;
151;SDS011;68;48.792;9.164;2023-05-07T14:14:10;16.80;;;6.70;;
151;SDS011;68;48.792;9.164;2023-05-07T14:16:37;12.30;;;5.97;;
151;SDS011;68;48.792;9.164;2023-05-07T14:19:04;13.33;;;6.60;;
151;SDS011;68;48.792;9.164;2023-05-07T14:21:31;13.97;;;6.10;;
151;SDS011;68;48.792;9.164;2023-05-07T14:23:57;15.50;;;7.03;;
151;SDS011;68;48.792;9.164;2023-05-07T14:26:25;17.30;;;8.00;;
151;SDS011;68;48.792;9.164;2023-05-07T14:28:52;20.90;;;7.70;;
151;SDS011;68;48.792;9.164;2023-05-07T14:31:23;16.67;;;7.50;;
151;SDS011;68;48.792;9.164;2023-05-07T14:33:50;16.80;;;7.97;;
151;SDS011;68;48.792;9.164;2023-05-07T14:36:17;19.03;;;9.30;;
151;SDS011;68;48.792;9.164;2023-05-07T14:38:45;17.60;;;8.07;;
151;SDS011;68;48.792;9.164;2023-05-07T14:41:12;16.20;;;7.63;;
151;SDS011;68;48.792;9.164;2023-05-07T14:43:39;17.83;;;7.83;;
151;SDS011;68;48.792;9.164;2023-05-07T14:46:06;17.73;;;8.80;;
151;SDS011;68;48.792;9.164;2023-05-07T14:48:34;17.70;;;8.57;;
151;SDS011;68;48.792;9.164;2023-05-07T14:51:01;15.13;;;7.67;;
151;SDS011;68;48.792;9.164;2023-05-07T14:53:28;15.73;;;7.63;;
151;SDS011;68;48.792;9.164;2023-05-07T14:55:55;15.60;;;7.20;;
151;SDS011;68;48.792;9.164;2023-05-07T14:58:21;13.73;;;6.80;;
151;SDS011;68;48.792;9.164;2023-05-07T15:00:48;16.27;;;6.90;;
151;SDS011;68;48.792;9.164;2023-05-07T15:03:15;13.70;;;6.60;;
151;SDS011;68;48.792;9.164;2023-05-07T15:05:43;16.10;;;6.73;;
151;SDS011;68;48.792;9.164;2023-05-07T15:08:10;14.80;;;6.63;;
151;SDS011;68;48.792;9.164;2023-05-07T15:10:37;16.27;;;7.03;;
151;SDS011;68;48.792;9.164;2023-05-07T15:13:06;16.47;;;6.30;;
151;SDS011;68;48.792;9.164;2023-05-07T15:15:33;16.30;;;6.90;;
151;SDS011;68;48.792;9.164;2023-05-07T15:18:00;14.00;;;6.50;;
151;SDS011;68;48.792;9.164;2023-05-07T15:20:26;14.63;;;6.40;;
151;SDS011;68;48.792;9.164;2023-05-07T15:22:55;14.50;;;6.60;;
151;SDS011;68;48.792;9.164;2023-05-07T15:25:22;16.30;;;6.80;;
151;SDS011;68;48.792;9.164;2023-05-07T15:27:49;14.73;;;6.37;;
151;SDS011;68;48.792;9.164;2023-05-07T15:30:16;14.10;;;6.60;;
151;SDS011;68;48.792;9.164;2023-05-07T15:32:45;16.03;;;7.67;;
151;SDS011;68;48.792;9.164;2023-05-07T15:35:12;18.10;;;7.17;;
151;SDS011;68;48.792;9.164;2023-05-07T15:37:38;17.10;;;8.33;;
151;SDS011;68;48.792;9.164;2023-05-07T15:40:07;13.70;;;6.70;;
151;SDS011;68;48.792;9.164;2023-05-07T15:42:35;15.53;;;7.37;;
151;SDS011;68;48.792;9.164;2023-05-07T15:45:02;14.90;;;7.47;;
151;SDS011;68;48.792;9.164;2023-05-07T15:47:30;14.83;;;6.20;;
151;SDS011;68;48.792;9.164;2023-05-07T15:49:59;14.83;;;6.40;;
151;SDS011;68;48.792;9.164;2023-05-07T15:52:26;18.13;;;7.10;;